createdAt,value
2022-08-03T00:00:51.058Z,38.35
2022-08-03T00:06:04.338Z,39.83
2022-08-03T00:08:37.713Z,23.27
2022-08-03T00:11:11.488Z,24.95
2022-08-03T00:13:41.937Z,23.95
2022-08-03T00:18:42.972Z,25.00
2022-08-03T00:21:13.736Z,27.60
2022-08-03T00:23:52.510Z,28.10
2022-08-03T00:26:23.645Z,27.10
2022-08-03T00:28:54.102Z,27.40
2022-08-03T00:34:14.314Z,39.55
2022-08-03T00:39:14.536Z,25.85
2022-08-03T00:44:14.625Z,31.27
2022-08-03T00:46:45.157Z,26.08
2022-08-03T00:51:45.626Z,18.92
2022-08-03T00:54:19.325Z,27.92
2022-08-03T00:56:59.568Z,24.23
2022-08-03T00:59:31.663Z,27.35
2022-08-03T01:02:02.243Z,25.88
2022-08-03T01:04:32.861Z,22.52
2022-08-03T01:07:06.084Z,42.60
2022-08-03T01:10:04.785Z,34.25
2022-08-03T01:12:46.506Z,37.60
2022-08-03T01:15:34.920Z,22.83
2022-08-03T01:18:22.000Z,21.42
2022-08-03T01:20:58.338Z,23.45
2022-08-03T01:23:54.679Z,22.80
2022-08-03T01:26:50.772Z,23.48
2022-08-03T01:29:42.617Z,28.23
2022-08-03T01:32:59.109Z,28.90
2022-08-03T01:35:38.603Z,22.27
2022-08-03T01:38:39.761Z,25.42
2022-08-03T01:41:15.305Z,29.02
2022-08-03T01:44:26.463Z,23.40
2022-08-03T01:46:48.905Z,22.80
2022-08-03T01:49:19.996Z,27.38
2022-08-03T01:52:02.900Z,22.30
2022-08-03T01:54:42.817Z,23.85
2022-08-03T01:57:14.836Z,28.13
2022-08-03T01:59:46.998Z,19.35
2022-08-03T02:02:33.532Z,23.98
2022-08-03T02:05:10.662Z,26.23
2022-08-03T02:07:43.637Z,24.38
2022-08-03T02:10:34.851Z,23.35
2022-08-03T02:13:10.020Z,21.33
2022-08-03T02:15:41.311Z,22.45
2022-08-03T02:18:12.902Z,26.85
2022-08-03T02:20:46.121Z,27.20
2022-08-03T02:23:20.035Z,22.60
2022-08-03T02:25:59.971Z,39.67
2022-08-03T02:28:37.709Z,36.58
2022-08-03T02:31:30.851Z,30.80
2022-08-03T02:34:10.522Z,35.50
2022-08-03T02:36:44.030Z,32.90
2022-08-03T02:39:17.655Z,27.75
2022-08-03T02:41:58.499Z,23.90
2022-08-03T02:44:30.882Z,27.90
2022-08-03T02:47:11.362Z,30.75
2022-08-03T02:49:51.385Z,33.75
2022-08-03T02:52:25.823Z,42.75
2022-08-03T02:55:00.880Z,42.55
2022-08-03T02:57:33.293Z,29.75
2022-08-03T03:00:03.955Z,41.10
2022-08-03T03:02:34.611Z,35.75
2022-08-03T03:05:56.236Z,37.53
2022-08-03T03:07:57.620Z,34.65
2022-08-03T03:10:28.881Z,37.15
2022-08-03T03:13:00.663Z,32.47
2022-08-03T03:15:34.044Z,34.85
2022-08-03T03:18:05.767Z,27.48
2022-08-03T03:20:37.160Z,38.22
2022-08-03T03:23:08.864Z,20.05
2022-08-03T03:25:40.185Z,30.17
2022-08-03T03:28:12.276Z,32.90
2022-08-03T03:30:42.975Z,30.95
2022-08-03T03:33:14.063Z,33.50
2022-08-03T03:35:46.983Z,28.63
2022-08-03T03:38:17.385Z,37.22
2022-08-03T03:43:19.817Z,32.97
2022-08-03T03:45:52.859Z,40.45
2022-08-03T03:48:23.531Z,36.15
2022-08-03T03:50:54.455Z,36.90
2022-08-03T03:53:24.882Z,26.35
2022-08-03T03:55:59.471Z,31.60
2022-08-03T03:58:34.659Z,27.92
2022-08-03T04:01:05.386Z,24.92
2022-08-03T04:03:37.170Z,28.48
2022-08-03T04:06:25.680Z,30.00
2022-08-03T04:09:14.356Z,27.13
2022-08-03T04:11:54.792Z,28.90
2022-08-03T04:14:36.884Z,27.15
2022-08-03T04:17:10.958Z,28.45
2022-08-03T04:19:49.494Z,26.40
2022-08-03T04:22:28.725Z,26.77
2022-08-03T04:25:09.600Z,27.92
2022-08-03T04:27:43.033Z,24.75
2022-08-03T04:30:14.741Z,31.08
2022-08-03T04:32:47.325Z,28.17
2022-08-03T04:35:21.105Z,30.83
2022-08-03T04:38:15.059Z,26.05
2022-08-03T04:40:47.311Z,24.73
2022-08-03T04:43:20.277Z,25.67
2022-08-03T04:45:52.825Z,29.50
2022-08-03T04:48:23.287Z,23.20
2022-08-03T04:53:24.061Z,28.65
2022-08-03T04:55:57.192Z,32.35
2022-08-03T04:58:31.919Z,26.10
2022-08-03T05:03:33.152Z,24.90
2022-08-03T05:06:11.124Z,24.70
2022-08-03T05:08:46.895Z,27.00
2022-08-03T05:11:18.342Z,25.38
2022-08-03T05:13:49.353Z,28.55
2022-08-03T05:16:19.909Z,24.02
2022-08-03T05:18:50.737Z,30.65
2022-08-03T05:21:21.137Z,27.83
2022-08-03T05:23:54.521Z,27.88
2022-08-03T05:26:24.869Z,31.27
2022-08-03T05:28:57.134Z,29.00
2022-08-03T05:31:27.505Z,27.75
2022-08-03T05:33:59.252Z,31.23
2022-08-03T05:36:29.792Z,28.80
2022-08-03T05:39:02.826Z,32.33
2022-08-03T05:41:37.162Z,33.15
2022-08-03T05:44:08.151Z,35.55
2022-08-03T05:49:08.373Z,29.05
2022-08-03T05:51:38.894Z,27.60
2022-08-03T05:56:39.025Z,22.92
2022-08-03T06:01:59.425Z,28.05
2022-08-03T06:06:59.564Z,25.83
2022-08-03T06:09:31.821Z,35.42
2022-08-03T06:12:21.842Z,30.60
2022-08-03T06:14:52.440Z,32.10
2022-08-03T06:19:55.662Z,30.55
2022-08-03T06:22:26.139Z,29.10
2022-08-03T06:24:57.673Z,27.15
2022-08-03T06:30:10.207Z,29.80
2022-08-03T06:32:43.447Z,29.25
2022-08-03T06:35:22.966Z,34.38
2022-08-03T06:37:55.424Z,34.60
2022-08-03T06:40:35.892Z,27.88
2022-08-03T06:43:09.509Z,26.83
2022-08-03T06:45:42.891Z,28.92
2022-08-03T06:48:18.057Z,32.65
2022-08-03T06:50:48.598Z,32.13
2022-08-03T06:55:54.671Z,23.38
2022-08-03T06:58:25.519Z,23.73
2022-08-03T07:00:56.259Z,28.55
2022-08-03T07:03:26.682Z,24.08
2022-08-03T07:05:57.263Z,26.63
2022-08-03T07:08:33.197Z,26.25
2022-08-03T07:11:04.922Z,30.42
2022-08-03T07:13:35.496Z,32.80
2022-08-03T07:16:06.249Z,25.90
2022-08-03T07:18:40.820Z,21.00
2022-08-03T07:21:12.873Z,27.45
2022-08-03T07:23:43.330Z,26.50
2022-08-03T07:28:45.922Z,25.88
2022-08-03T07:31:18.671Z,27.30
2022-08-03T07:33:52.217Z,34.35
2022-08-03T07:36:22.654Z,31.98
2022-08-03T07:38:53.136Z,30.65
2022-08-03T07:43:53.311Z,29.17
2022-08-03T07:46:23.825Z,36.40
2022-08-03T07:48:57.285Z,46.83
2022-08-03T07:53:59.041Z,33.60
2022-08-03T07:56:29.796Z,38.38
2022-08-03T08:01:29.807Z,38.65
2022-08-03T08:04:00.376Z,32.75
2022-08-03T08:06:31.067Z,42.63
2022-08-03T08:09:03.546Z,42.67
2022-08-03T08:11:36.924Z,43.10
2022-08-03T08:14:11.096Z,44.00
2022-08-03T08:16:41.598Z,43.47
2022-08-03T08:21:53.569Z,32.97
2022-08-03T08:24:32.689Z,41.70
2022-08-03T08:27:04.955Z,40.22
2022-08-03T08:32:05.291Z,41.67
2022-08-03T08:34:35.719Z,43.30
2022-08-03T08:37:06.353Z,43.40
2022-08-03T08:39:36.725Z,47.22
2022-08-03T08:42:07.196Z,43.42
2022-08-03T08:44:37.738Z,48.25
2022-08-03T08:47:09.922Z,41.42
2022-08-03T08:49:53.418Z,37.05
2022-08-03T08:52:34.102Z,45.30
2022-08-03T08:55:10.542Z,42.78
2022-08-03T08:57:51.008Z,46.42
2022-08-03T09:00:21.446Z,44.40
2022-08-03T09:05:41.333Z,34.60
2022-08-03T09:08:13.584Z,35.67
2022-08-03T09:13:13.561Z,41.78
2022-08-03T09:15:51.326Z,36.10
2022-08-03T09:18:32.339Z,37.55
2022-08-03T09:21:31.654Z,31.83
2022-08-03T09:24:07.011Z,38.03
2022-08-03T09:26:40.951Z,42.15
2022-08-03T09:31:47.839Z,33.08
2022-08-03T09:34:19.793Z,34.67
2022-08-03T09:36:51.809Z,40.45
2022-08-03T09:39:41.077Z,39.83
2022-08-03T09:42:23.952Z,32.47
2022-08-03T09:44:55.004Z,32.63
2022-08-03T09:47:34.827Z,35.53
2022-08-03T09:50:08.447Z,34.72
2022-08-03T09:52:51.960Z,30.48
2022-08-03T09:56:33.753Z,38.30
2022-08-03T09:58:15.649Z,32.75
2022-08-03T10:00:59.745Z,36.10
2022-08-03T10:03:32.609Z,33.22
2022-08-03T10:06:28.741Z,31.90
2022-08-03T10:09:19.079Z,27.60
2022-08-03T10:11:50.821Z,34.20
2022-08-03T10:14:21.618Z,31.10
2022-08-03T10:16:52.317Z,32.97
2022-08-03T10:19:22.827Z,33.10
2022-08-03T10:21:58.812Z,29.17
2022-08-03T10:24:32.306Z,32.88
2022-08-03T10:27:11.178Z,39.78
2022-08-03T10:29:44.753Z,32.55
2022-08-03T10:32:36.290Z,38.70
2022-08-03T10:35:20.948Z,28.52
2022-08-03T10:38:02.667Z,29.38
2022-08-03T10:40:52.666Z,28.48
2022-08-03T10:43:38.725Z,31.65
2022-08-03T10:46:10.307Z,30.92
2022-08-03T10:48:41.185Z,30.88
2022-08-03T10:51:12.159Z,34.40
2022-08-03T10:53:54.202Z,26.60
2022-08-03T10:56:53.498Z,27.27
2022-08-03T10:59:52.143Z,31.33
2022-08-03T11:02:22.620Z,31.13
2022-08-03T11:07:42.721Z,32.80
2022-08-03T11:13:11.069Z,27.15
2022-08-03T11:15:51.678Z,31.92
2022-08-03T11:18:22.494Z,29.85
2022-08-03T11:20:59.522Z,33.78
2022-08-03T11:24:04.210Z,29.45
2022-08-03T11:26:37.051Z,24.73
2022-08-03T11:29:30.125Z,32.92
2022-08-03T11:32:01.357Z,23.92
2022-08-03T11:34:31.759Z,39.75
2022-08-03T11:39:54.897Z,29.33
2022-08-03T11:42:25.372Z,26.77
2022-08-03T11:47:31.323Z,17.02
2022-08-03T11:50:03.312Z,28.30
2022-08-03T11:52:39.202Z,28.40
2022-08-03T11:55:14.337Z,22.13
2022-08-03T11:59:13.191Z,20.52
2022-08-03T12:00:38.233Z,23.42
2022-08-03T12:03:15.656Z,29.88
2022-08-03T12:05:56.025Z,21.42
2022-08-03T12:08:29.253Z,21.05
2022-08-03T12:11:01.535Z,22.13
2022-08-03T12:14:49.768Z,22.17
2022-08-03T12:16:52.070Z,19.48
2022-08-03T12:19:22.665Z,24.65
2022-08-03T12:21:57.266Z,21.92
2022-08-03T12:24:30.802Z,22.55
2022-08-03T12:27:01.201Z,20.90
2022-08-03T12:29:31.635Z,21.00
2022-08-03T12:34:50.773Z,22.65
2022-08-03T12:37:23.381Z,25.80
2022-08-03T12:40:02.448Z,32.92
2022-08-03T12:42:38.502Z,28.83
2022-08-03T12:45:28.535Z,31.33
2022-08-03T12:48:01.502Z,34.42
2022-08-03T12:50:34.272Z,27.15
2022-08-03T12:53:09.105Z,32.00
2022-08-03T12:56:04.520Z,33.53
2022-08-03T12:58:37.885Z,35.08
2022-08-03T13:01:10.777Z,35.05
2022-08-03T13:03:50.210Z,36.60
2022-08-03T13:06:27.176Z,29.63
2022-08-03T13:09:10.087Z,30.05
2022-08-03T13:11:57.584Z,29.35
2022-08-03T13:14:32.768Z,31.27
2022-08-03T13:19:34.628Z,26.45
2022-08-03T13:22:16.625Z,26.08
2022-08-03T13:24:48.905Z,26.02
2022-08-03T13:28:12.468Z,25.90
2022-08-03T13:30:11.491Z,27.20
2022-08-03T13:32:42.032Z,24.98
2022-08-03T13:35:12.907Z,24.98
2022-08-03T13:37:48.925Z,21.42
2022-08-03T13:40:19.918Z,18.92
2022-08-03T13:42:54.201Z,20.15
2022-08-03T13:47:56.110Z,17.83
2022-08-03T13:50:26.502Z,19.20
2022-08-03T13:55:27.303Z,17.23
2022-08-03T13:58:11.479Z,20.17
2022-08-03T14:00:42.644Z,19.42
2022-08-03T14:03:14.402Z,14.65
2022-08-03T14:05:45.805Z,21.38
2022-08-03T14:08:16.238Z,20.20
2022-08-03T14:13:17.746Z,21.52
2022-08-03T14:15:51.917Z,18.83
2022-08-03T14:18:28.293Z,15.35
2022-08-03T14:21:07.191Z,17.10
2022-08-03T14:23:41.889Z,15.38
2022-08-03T14:26:13.287Z,15.93
2022-08-03T14:28:43.948Z,18.23
2022-08-03T14:32:09.794Z,18.10
2022-08-03T14:34:05.240Z,15.57
2022-08-03T14:36:35.633Z,17.85
2022-08-03T14:39:07.183Z,14.60
2022-08-03T14:41:37.751Z,16.70
2022-08-03T14:44:08.385Z,15.98
2022-08-03T14:46:38.764Z,16.67
2022-08-03T14:51:59.077Z,17.48
2022-08-03T14:57:02.487Z,9.77
2022-08-03T14:59:55.537Z,17.02
2022-08-03T15:02:24.086Z,14.43
2022-08-03T15:04:55.014Z,12.43
2022-08-03T15:07:25.429Z,12.10
2022-08-03T15:09:55.813Z,18.20
2022-08-03T15:12:26.280Z,13.32
2022-08-03T15:14:56.848Z,13.93
2022-08-03T15:17:27.367Z,13.57
2022-08-03T15:20:17.008Z,12.68
2022-08-03T15:22:48.515Z,21.80
2022-08-03T15:26:04.056Z,17.60
2022-08-03T15:28:09.304Z,15.65
2022-08-03T15:30:39.825Z,13.07
2022-08-03T15:33:10.344Z,18.33
2022-08-03T15:35:40.848Z,16.35
2022-08-03T15:38:11.224Z,13.57
2022-08-03T15:40:42.163Z,12.70
2022-08-03T15:43:12.588Z,15.93
2022-08-03T15:45:44.222Z,15.35
2022-08-03T15:48:14.488Z,12.93
2022-08-03T15:53:15.303Z,17.75
2022-08-03T15:55:45.836Z,10.93
2022-08-03T15:59:07.604Z,10.00
2022-08-03T16:01:08.699Z,11.10
2022-08-03T16:03:39.659Z,10.98
2022-08-03T16:06:10.637Z,14.82
2022-08-03T16:08:41.012Z,11.18
2022-08-03T16:11:12.548Z,7.80
2022-08-03T16:14:13.002Z,14.30
2022-08-03T16:16:33.765Z,8.32
2022-08-03T16:19:05.410Z,12.75
2022-08-03T16:21:48.284Z,10.65
2022-08-03T16:24:24.241Z,8.68
2022-08-03T16:27:00.562Z,10.15
2022-08-03T16:29:31.219Z,16.52
2022-08-03T16:32:09.506Z,11.60
2022-08-03T16:34:41.050Z,11.60
2022-08-03T16:37:37.265Z,14.02
2022-08-03T16:40:02.842Z,10.18
2022-08-03T16:42:33.816Z,13.52
2022-08-03T16:45:05.000Z,9.90
2022-08-03T16:47:35.864Z,8.88
2022-08-03T16:50:13.985Z,13.00
2022-08-03T16:52:48.545Z,13.73
2022-08-03T16:55:48.900Z,8.75
2022-08-03T16:58:12.558Z,10.48
2022-08-03T17:00:44.388Z,9.98
2022-08-03T17:03:24.080Z,8.82
2022-08-03T17:05:54.902Z,13.32
2022-08-03T17:08:30.211Z,9.02
2022-08-03T17:11:00.694Z,10.82
2022-08-03T17:13:39.239Z,11.27
2022-08-03T17:16:15.142Z,16.55
2022-08-03T17:19:01.893Z,10.43
2022-08-03T17:21:34.700Z,9.65
2022-08-03T17:24:12.293Z,11.57
2022-08-03T17:26:46.395Z,10.73
2022-08-03T17:29:26.133Z,10.85
2022-08-03T17:32:02.900Z,12.07
2022-08-03T17:34:36.438Z,11.30
2022-08-03T17:37:27.373Z,13.20
2022-08-03T17:40:01.195Z,9.43
2022-08-03T17:42:35.802Z,10.02
2022-08-03T17:45:07.935Z,8.55
2022-08-03T17:47:57.358Z,7.32
2022-08-03T17:50:45.997Z,17.75
2022-08-03T17:53:24.667Z,7.35
2022-08-03T17:56:44.372Z,11.50
2022-08-03T17:59:51.918Z,11.90
2022-08-03T18:02:55.488Z,11.02
2022-08-03T18:06:09.027Z,17.80
2022-08-03T18:08:28.898Z,7.75
2022-08-03T18:11:14.988Z,11.15
2022-08-03T18:14:16.546Z,16.75
2022-08-03T18:17:00.157Z,15.52
2022-08-03T18:20:01.012Z,15.02
2022-08-03T18:25:13.554Z,15.27
2022-08-03T18:27:47.457Z,11.85
2022-08-03T18:30:18.254Z,15.05
2022-08-03T18:35:53.740Z,20.42
2022-08-03T18:38:25.425Z,15.90
2022-08-03T18:40:56.009Z,13.45
2022-08-03T18:43:47.580Z,10.43
2022-08-03T18:46:25.934Z,9.90
2022-08-03T18:49:08.305Z,14.43
2022-08-03T18:51:47.026Z,18.27
2022-08-03T18:54:57.273Z,17.17
2022-08-03T18:57:30.418Z,12.23
2022-08-03T19:00:14.128Z,14.13
2022-08-03T19:02:53.602Z,11.77
2022-08-03T19:05:56.434Z,13.25
2022-08-03T19:08:26.562Z,14.93
2022-08-03T19:11:06.120Z,13.65
2022-08-03T19:13:50.341Z,14.85
2022-08-03T19:16:34.309Z,15.45
2022-08-03T19:19:05.083Z,12.02
2022-08-03T19:21:38.088Z,10.63
2022-08-03T19:24:10.552Z,15.02
2022-08-03T19:26:42.625Z,15.18
2022-08-03T19:29:20.480Z,14.55
2022-08-03T19:31:59.182Z,14.25
2022-08-03T19:34:34.071Z,14.07
2022-08-03T19:37:15.443Z,18.38
2022-08-03T19:39:46.051Z,16.35
2022-08-03T19:42:33.092Z,18.15
2022-08-03T19:47:53.314Z,16.92
2022-08-03T19:50:24.318Z,16.67
2022-08-03T19:52:56.698Z,17.50
2022-08-03T19:55:32.255Z,17.42
2022-08-03T19:58:05.510Z,18.52
2022-08-03T20:00:39.360Z,22.35
2022-08-03T20:03:22.016Z,14.60
2022-08-03T20:05:54.290Z,16.95
2022-08-03T20:08:26.672Z,18.75
2022-08-03T20:10:57.420Z,17.63
2022-08-03T20:13:28.641Z,14.45
2022-08-03T20:15:59.226Z,16.80
2022-08-03T20:18:29.755Z,17.40
2022-08-03T20:21:05.597Z,14.63
2022-08-03T20:24:01.903Z,15.48
2022-08-03T20:26:38.111Z,22.42
2022-08-03T20:29:11.055Z,16.13
2022-08-03T20:31:42.487Z,17.17
2022-08-03T20:34:12.824Z,23.40
2022-08-03T20:36:48.244Z,20.42
2022-08-03T20:39:18.850Z,22.98
2022-08-03T20:41:49.397Z,21.15
2022-08-03T20:44:19.926Z,20.20
2022-08-03T20:47:00.510Z,21.33
2022-08-03T20:52:26.020Z,28.23
2022-08-03T20:54:57.249Z,17.48
2022-08-03T20:57:28.677Z,17.35
2022-08-03T21:00:14.873Z,26.05
2022-08-03T21:02:45.749Z,22.98
2022-08-03T21:05:16.203Z,20.05
2022-08-03T21:08:06.909Z,17.52
2022-08-03T21:10:41.998Z,15.25
2022-08-03T21:12:57.781Z,13.30
2022-08-03T21:12:58.266Z,16.13
2022-08-03T21:13:07.508Z,22.13
2022-08-03T21:13:27.171Z,18.83
2022-08-03T21:16:07.016Z,19.52
2022-08-03T21:18:50.021Z,17.85
2022-08-03T21:21:23.092Z,20.23
2022-08-03T21:23:55.618Z,22.58
2022-08-03T21:26:28.325Z,17.92
2022-08-03T21:28:58.968Z,24.23
2022-08-03T21:31:30.232Z,21.30
2022-08-03T21:34:05.713Z,17.15
2022-08-03T21:36:38.881Z,23.42
2022-08-03T21:39:11.782Z,22.58
2022-08-03T21:41:42.710Z,16.33
2022-08-03T21:44:13.141Z,21.67
2022-08-03T21:46:45.652Z,30.30
2022-08-03T21:50:04.559Z,23.52
2022-08-03T21:52:08.233Z,21.50
2022-08-03T21:54:43.571Z,23.15
2022-08-03T21:57:27.455Z,24.85
2022-08-03T22:00:03.498Z,28.70
2022-08-03T22:02:54.531Z,22.75
2022-08-03T22:05:43.007Z,18.90
2022-08-03T22:08:17.279Z,22.08
2022-08-03T22:10:50.407Z,21.05
2022-08-03T22:13:43.575Z,26.98
2022-08-03T22:16:12.466Z,20.20
2022-08-03T22:18:46.574Z,29.33
2022-08-03T22:21:28.120Z,24.40
2022-08-03T22:24:07.771Z,21.92
2022-08-03T22:27:02.671Z,25.42
2022-08-03T22:29:38.437Z,24.30
2022-08-03T22:32:09.226Z,26.48
2022-08-03T22:34:40.472Z,29.10
2022-08-03T22:37:12.809Z,28.65
2022-08-03T22:39:45.933Z,27.67
2022-08-03T22:42:17.483Z,28.63
2022-08-03T22:44:50.635Z,27.15
2022-08-03T22:47:23.271Z,24.80
2022-08-03T22:50:31.514Z,21.73
2022-08-03T22:52:47.971Z,33.92
2022-08-03T22:55:24.902Z,26.58
2022-08-03T22:57:56.551Z,28.90
2022-08-03T23:00:27.506Z,25.60
2022-08-03T23:03:01.951Z,28.55
2022-08-03T23:06:02.460Z,26.88
2022-08-03T23:08:27.309Z,31.00
2022-08-03T23:11:05.081Z,30.52
2022-08-03T23:13:35.976Z,39.92
2022-08-03T23:16:08.610Z,34.50
2022-08-03T23:18:40.667Z,32.35
2022-08-03T23:21:11.884Z,33.60
2022-08-03T23:23:47.184Z,34.50
2022-08-03T23:26:20.918Z,37.22
2022-08-03T23:28:52.466Z,32.58
2022-08-03T23:31:26.925Z,35.25
2022-08-03T23:34:20.717Z,30.83
2022-08-03T23:36:51.658Z,30.92
2022-08-03T23:39:24.258Z,29.50
2022-08-03T23:41:55.502Z,30.48
2022-08-03T23:44:29.065Z,33.53
2022-08-03T23:47:00.263Z,31.45
2022-08-03T23:49:30.730Z,36.80
2022-08-03T23:52:13.955Z,28.48
2022-08-03T23:55:37.834Z,30.48
2022-08-03T23:58:41.635Z,27.05
